Sao Joao de Barra, Brazil
Current Conditions -  °F | °C
As of 1:00 PM on Thursday 23 Oct 2014 (Local Time) from SBBH Reporting Station
Scattered Clouds Scattered Clouds  
Wind Chill: 77°   Ceiling: Unl
Heat Index: 79°   Visibility: 6mi
Dew Point: 59°   Wind: 8mph
Humidity: 54%   Direction: 120°ESE
Pressure: 30.18"   Gusts: NA
Location:  21.13°S, 44.27°W
Report Text: SBBH 231500Z 12007KT 9999 SCT030 25/15 Q1022
Loading
Personal Weather Stations






























Interactive Weather Map
Tropical Storm Tracking
New forecast layout! Learn more

10-Day Weather Forecast

Advertisements
Track Severe Weather on mobile